»·PEaware :: N233CL KVNY-KTUS

N233CL :: KVNY-KTUS

FLIGHT INFORMATION

Flight Status: Arrived
Operator: Privately registered:
United States
More flights under this callsign
Pilot: Mike D. (44226)
Aircraft: Cessna 700 Citation Longitude
(C700)
More flights by this aircraft type
Origin: KVNY Van Nuys
United States
Destination: KTUS Tucson Intl
United States
More flights between these airports :: More routes between these airports
Route: NUAL1 PMD GBN DINGO5
File this flight plan on PilotEdge
Remarks: RMK / SIMBRIEF
Altitude:
(Current/Filed)
41,000ft
Speed:
(Current/Filed)
480kts
Departed: 22-Jun-23 03:16 PM
Arrived: 22-Jun-23 04:18 PM
Distance/Time
Traveled:
399nm/1:01
Distance/Time
To Go:
Arrived

Flight Plot

Page will automatically refresh every two minutes.

Flight plan parsing failed; only flown route is shown


Map Options




Map Legend


Flown Route
Filed Route
Departure Airport
Arrival Airport
Navaid (VOR, NDB)
Fix

Horizontal Profiles

Position Reports

Time Latitude Longitude Heading Altitude Ground
Speed
22-Jun-23 14:57 34.195031 -118.490642 90 805ft 0kts
22-Jun-23 14:58 34.195031 -118.490642 90 805ft 0kts
22-Jun-23 14:58 34.195031 -118.490642 90 805ft 0kts
22-Jun-23 14:59 34.195031 -118.490642 90 805ft 0kts
22-Jun-23 15:00 34.195031 -118.490642 90 805ft 0kts
22-Jun-23 15:01 34.195031 -118.490642 90 805ft 0kts
22-Jun-23 15:03 34.195031 -118.490642 90 805ft 0kts
22-Jun-23 15:03 34.195031 -118.490642 90 805ft 0kts
22-Jun-23 15:04 34.195031 -118.490642 90 805ft 0kts
22-Jun-23 15:05 34.195031 -118.490642 90 805ft 0kts
22-Jun-23 15:06 34.195031 -118.490642 90 805ft 0kts
22-Jun-23 15:07 34.195031 -118.490642 90 805ft 0kts
22-Jun-23 15:08 34.196399 -118.490307 358 805ft 13kts
22-Jun-23 15:09 34.201047 -118.490380 355 805ft 16kts
22-Jun-23 15:10 34.205989 -118.491177 355 805ft 21kts
22-Jun-23 15:11 34.210947 -118.491650 354 805ft 21kts
22-Jun-23 15:12 34.215524 -118.492165 352 805ft 15kts
22-Jun-23 15:13 34.218601 -118.492271 33 805ft 0kts
22-Jun-23 15:14 34.217474 -118.491123 176 805ft 38kts
22-Jun-23 15:15 34.175606 -118.489284 178 3988ft 171kts
22-Jun-23 15:16 34.142458 -118.430278 103 4009ft 264kts
22-Jun-23 15:17 34.165345 -118.355679 13 4379ft 273kts
22-Jun-23 15:18 34.237211 -118.386460 331 10009ft 286kts
22-Jun-23 15:19 34.327073 -118.378182 23 13041ft 406kts
22-Jun-23 15:20 34.431391 -118.341847 18 17763ft 386kts
22-Jun-23 15:21 34.513554 -118.252447 55 21726ft 421kts
22-Jun-23 15:22 34.583675 -118.138561 62 25040ft 449kts
22-Jun-23 15:23 34.607778 -117.992991 106 28000ft 445kts
22-Jun-23 15:24 34.570388 -117.849298 118 30763ft 458kts
22-Jun-23 15:25 34.527521 -117.699506 118 32958ft 482kts
22-Jun-23 15:26 34.483431 -117.546099 118 35691ft 481kts
22-Jun-23 15:27 34.439270 -117.393380 119 38068ft 478kts
22-Jun-23 15:28 34.395213 -117.241857 119 39676ft 478kts
22-Jun-23 15:29 34.350810 -117.089996 118 40926ft 481kts
22-Jun-23 15:30 34.304375 -116.932015 118 40910ft 514kts
22-Jun-23 15:31 34.255461 -116.766317 118 40879ft 526kts
22-Jun-23 15:32 34.206813 -116.602667 118 40836ft 527kts
22-Jun-23 15:33 34.157185 -116.436652 118 40852ft 526kts
22-Jun-23 15:34 34.107205 -116.270401 118 40879ft 526kts
22-Jun-23 15:35 34.057102 -116.104617 118 40864ft 527kts
22-Jun-23 15:36 34.006753 -115.939009 118 40818ft 526kts
22-Jun-23 15:37 33.956182 -115.773578 118 40802ft 527kts
22-Jun-23 15:38 33.905451 -115.608552 118 40802ft 527kts
22-Jun-23 15:39 33.854485 -115.443694 119 40800ft 527kts
22-Jun-23 15:40 33.803132 -115.278434 119 40784ft 527kts
22-Jun-23 15:41 33.751757 -115.114007 119 40780ft 526kts
22-Jun-23 15:42 33.700027 -114.949387 119 40797ft 527kts
22-Jun-23 15:43 33.647967 -114.784541 119 40810ft 527kts
22-Jun-23 15:44 33.595817 -114.620343 119 40806ft 527kts
22-Jun-23 15:45 33.543497 -114.456491 119 40793ft 528kts
22-Jun-23 15:46 33.490682 -114.291971 119 40789ft 527kts
22-Jun-23 15:47 33.437949 -114.128588 119 40794ft 528kts
22-Jun-23 15:48 33.384800 -113.964773 119 40799ft 528kts
22-Jun-23 15:49 33.331371 -113.800942 119 40792ft 528kts
22-Jun-23 15:50 33.277873 -113.637782 119 40786ft 528kts
22-Jun-23 15:51 33.224217 -113.474992 119 40776ft 528kts
22-Jun-23 15:52 33.170910 -113.313925 120 38038ft 506kts
22-Jun-23 15:53 33.120057 -113.161417 120 35247ft 494kts
22-Jun-23 15:54 33.069088 -113.008877 120 33285ft 497kts
22-Jun-23 15:55 33.017575 -112.855664 119 31233ft 498kts
22-Jun-23 15:56 32.966058 -112.703071 118 29137ft 492kts
22-Jun-23 15:57 32.911385 -112.557485 121 27126ft 474kts
22-Jun-23 15:58 32.857436 -112.417324 121 25175ft 460kts
22-Jun-23 15:59 32.804573 -112.280701 121 23781ft 459kts
22-Jun-23 16:00 32.751419 -112.143401 121 22422ft 440kts
22-Jun-23 16:01 32.701860 -112.016551 121 19538ft 417kts
22-Jun-23 16:02 32.653227 -111.892242 121 17779ft 409kts
22-Jun-23 16:03 32.605996 -111.771980 120 16143ft 397kts
22-Jun-23 16:04 32.559922 -111.655036 120 14552ft 386kts
22-Jun-23 16:05 32.501441 -111.553327 131 13005ft 370kts
22-Jun-23 16:06 32.440851 -111.450572 129 12929ft 383kts
22-Jun-23 16:07 32.367745 -111.366276 154 12866ft 356kts
22-Jun-23 16:08 32.303510 -111.306493 142 7969ft 271kts
22-Jun-23 16:09 32.255919 -111.231821 129 7933ft 291kts
22-Jun-23 16:10 32.208691 -111.154096 129 7948ft 292kts
22-Jun-23 16:11 32.161266 -111.076018 129 7948ft 293kts
22-Jun-23 16:12 32.107516 -111.011038 148 4458ft 260kts
22-Jun-23 16:13 32.051901 -110.973351 158 4386ft 215kts
22-Jun-23 16:14 32.019226 -110.925672 75 4447ft 211kts
22-Jun-23 16:15 32.062769 -110.883212 356 4313ft 195kts
22-Jun-23 16:16 32.097285 -110.917133 307 2876ft 138kts
22-Jun-23 16:17 32.110834 -110.932762 41 2613ft 17kts
22-Jun-23 16:18 32.112424 -110.932654 316 2612ft 19kts
22-Jun-23 16:19 32.117882 -110.939016 315 2586ft 24kts
22-Jun-23 16:20 32.122771 -110.944737 315 2573ft 23kts
22-Jun-23 16:21 32.125779 -110.946399 32 2567ft 14kts
22-Jun-23 16:22 32.125601 -110.945742 224 2567ft 0kts

Navigation Log

Ident Type
Flight plan parsing failed, navigation log unavailable